Time;durP1;ratioP1;P1;durP2;ratioP2;P2;SDS_P1;SDS_P2;PMS_P1;PMS_P2;Temp;Humidity;BMP_temperature;BMP_pressure;BME280_temperature;BME280_humidity;BME280_pressure;Samples;Min_cycle;Max_cycle;Signal;HPM_P1;HPM_P2
2022/10/26 00:01:07;;;;;;;7.50;3.95;;;10.00;99.90;;;;;;5047799;28;20549;-67
2022/10/26 00:03:34;;;;;;;13.13;3.72;;;10.20;99.90;;;;;;5047252;28;20056;-70
2022/10/26 00:06:08;;;;;;;15.50;4.18;;;10.50;99.90;;;;;;5046966;28;20124;-70
2022/10/26 00:08:34;;;;;;;9.63;4.00;;;10.60;99.90;;;;;;5046983;28;20033;-68
2022/10/26 00:11:00;;;;;;;12.20;4.28;;;10.60;99.90;;;;;;5047192;28;20509;-70
2022/10/26 00:13:26;;;;;;;9.77;4.07;;;10.60;99.90;;;;;;5047673;28;20036;-68
2022/10/26 00:15:52;;;;;;;14.25;4.32;;;10.40;99.90;;;;;;5048519;28;20033;-70
2022/10/26 00:18:17;;;;;;;10.02;4.30;;;10.40;99.90;;;;;;5046033;28;20041;-68
2022/10/26 00:20:43;;;;;;;11.63;4.03;;;10.40;99.90;;;;;;5051734;28;20449;-69
2022/10/26 00:23:08;;;;;;;8.93;4.50;;;10.30;99.90;;;;;;5051309;28;20037;-69
2022/10/26 00:25:34;;;;;;;12.07;4.30;;;10.20;99.90;;;;;;5052347;28;20082;-69
2022/10/26 00:27:59;;;;;;;13.55;4.80;;;10.10;99.90;;;;;;5050207;28;20067;-71
2022/10/26 00:30:25;;;;;;;14.93;4.43;;;10.10;99.90;;;;;;5052032;28;20112;-68
2022/10/26 00:32:51;;;;;;;14.57;4.40;;;10.10;99.90;;;;;;5051268;28;20051;-68
2022/10/26 00:35:17;;;;;;;8.45;4.32;;;10.20;99.90;;;;;;5051686;28;20040;-68
2022/10/26 00:37:42;;;;;;;16.15;4.45;;;10.20;99.90;;;;;;5050766;28;20453;-69
2022/10/26 00:40:08;;;;;;;12.73;5.07;;;10.20;99.90;;;;;;5050069;28;20541;-69
2022/10/26 00:42:34;;;;;;;12.23;4.65;;;10.30;99.90;;;;;;5049812;28;20508;-68
2022/10/26 00:45:05;;;;;;;13.70;4.90;;;10.30;99.90;;;;;;5036909;28;20078;-71
2022/10/26 00:47:38;;;;;;;8.93;4.47;;;10.30;99.90;;;;;;5045872;28;20037;-70
2022/10/26 00:50:18;;;;;;;10.93;4.43;;;10.30;99.90;;;;;;5049305;28;20017;-71
2022/10/26 00:52:44;;;;;;;10.90;4.28;;;10.30;99.90;;;;;;5050483;28;20074;-70
2022/10/26 00:55:10;;;;;;;9.57;4.38;;;10.30;99.90;;;;;;5048903;28;20432;-69
2022/10/26 00:57:37;;;;;;;10.48;4.50;;;10.40;99.90;;;;;;5051066;28;20041;-69
2022/10/26 01:00:06;;;;;;;9.63;4.80;;;10.40;99.90;;;;;;5049806;28;20033;-71
2022/10/26 01:02:31;;;;;;;7.10;4.20;;;10.50;99.90;;;;;;5046307;28;20112;-68
2022/10/26 01:04:58;;;;;;;13.27;4.65;;;10.50;99.90;;;;;;5051885;28;20497;-69
2022/10/26 01:07:24;;;;;;;12.35;4.20;;;10.50;99.90;;;;;;5049098;28;20514;-68
2022/10/26 01:09:50;;;;;;;14.80;5.03;;;10.60;99.90;;;;;;5049809;28;20044;-70
2022/10/26 01:12:16;;;;;;;11.75;4.40;;;10.50;99.90;;;;;;5048848;28;20037;-69
2022/10/26 01:14:42;;;;;;;11.90;4.40;;;10.50;99.90;;;;;;5049061;28;20156;-69
2022/10/26 01:17:32;;;;;;;11.23;4.47;;;10.50;99.90;;;;;;5043373;28;20039;-69
2022/10/26 01:20:18;;;;;;;11.53;4.50;;;10.50;99.90;;;;;;5048850;28;20033;-70
2022/10/26 01:22:57;;;;;;;8.73;4.55;;;10.50;99.90;;;;;;5040970;28;20363;-68
2022/10/26 01:25:35;;;;;;;12.00;3.70;;;10.50;99.90;;;;;;5048088;28;20029;-69
2022/10/26 01:28:26;;;;;;;10.82;4.78;;;10.50;99.90;;;;;;5049920;28;20481;-68
2022/10/26 01:30:53;;;;;;;8.45;4.18;;;10.60;99.90;;;;;;5047253;28;20134;-69
2022/10/26 01:33:31;;;;;;;9.98;4.28;;;10.60;99.90;;;;;;5049740;28;20036;-70
2022/10/26 01:36:15;;;;;;;13.80;5.00;;;10.60;99.90;;;;;;5048593;28;20044;-69
2022/10/26 01:38:54;;;;;;;8.18;4.03;;;10.50;99.90;;;;;;5032477;28;20117;-67
2022/10/26 01:41:26;;;;;;;12.25;4.55;;;10.50;99.90;;;;;;5047313;28;20139;-68
2022/10/26 01:44:00;;;;;;;15.77;6.10;;;10.40;99.90;;;;;;5049726;28;20029;-68
2022/10/26 01:46:30;;;;;;;12.05;4.57;;;10.40;99.90;;;;;;5048454;28;20646;-69
2022/10/26 01:49:02;;;;;;;11.07;4.70;;;10.40;99.90;;;;;;5049229;28;20040;-69
2022/10/26 01:51:28;;;;;;;14.18;4.60;;;10.50;99.90;;;;;;5046592;28;20035;-70
2022/10/26 01:53:54;;;;;;;11.02;4.78;;;10.50;99.90;;;;;;5051028;28;20086;-69
2022/10/26 01:56:24;;;;;;;14.05;4.65;;;10.50;99.90;;;;;;5047126;28;20036;-68
2022/10/26 01:59:08;;;;;;;11.17;4.23;;;10.50;99.90;;;;;;5048470;28;20583;-71
2022/10/26 02:01:50;;;;;;;10.48;4.68;;;10.60;99.90;;;;;;5041328;28;20044;-68
2022/10/26 02:05:06;;;;;;;10.95;4.32;;;10.70;99.90;;;;;;5048305;28;20032;-69
2022/10/26 02:07:41;;;;;;;12.25;4.70;;;10.70;99.90;;;;;;5014785;28;20068;-69
2022/10/26 02:10:41;;;;;;;11.07;4.03;;;10.70;99.90;;;;;;5047862;28;20469;-72
2022/10/26 02:13:15;;;;;;;15.20;4.60;;;10.70;99.90;;;;;;5042242;28;20091;-70
2022/10/26 02:15:56;;;;;;;11.95;4.57;;;10.70;99.90;;;;;;5046315;28;20476;-69
2022/10/26 02:18:49;;;;;;;15.90;4.60;;;10.70;99.90;;;;;;5048382;28;20394;-70
2022/10/26 02:21:20;;;;;;;8.30;4.53;;;10.70;99.90;;;;;;5045501;28;20443;-69
2022/10/26 02:23:47;;;;;;;8.60;4.18;;;10.50;99.90;;;;;;5039523;28;20029;-68
2022/10/26 02:26:16;;;;;;;10.95;5.10;;;10.50;99.90;;;;;;5039293;28;20375;-70
2022/10/26 02:28:47;;;;;;;9.50;4.43;;;10.50;99.90;;;;;;5044778;28;20048;-69
2022/10/26 02:31:14;;;;;;;12.40;4.60;;;10.40;99.90;;;;;;5047328;28;20033;-70
2022/10/26 02:33:44;;;;;;;13.70;4.28;;;10.40;99.90;;;;;;5047431;28;20037;-70
2022/10/26 02:36:14;;;;;;;9.80;4.70;;;10.50;99.90;;;;;;5049636;28;20529;-71
2022/10/26 02:38:42;;;;;;;9.80;4.60;;;10.50;99.90;;;;;;5040887;28;20041;-70
2022/10/26 02:41:11;;;;;;;14.05;4.32;;;10.50;99.90;;;;;;5048647;28;20033;-70
2022/10/26 02:43:43;;;;;;;13.88;4.13;;;10.60;99.90;;;;;;5046676;28;20031;-69
2022/10/26 02:46:14;;;;;;;11.02;4.10;;;10.60;99.90;;;;;;5052520;28;20049;-71
2022/10/26 02:48:39;;;;;;;9.57;4.38;;;10.60;99.90;;;;;;5049196;28;20540;-68
2022/10/26 02:51:11;;;;;;;9.80;4.70;;;10.60;99.90;;;;;;5046213;28;20021;-68
2022/10/26 02:53:47;;;;;;;13.43;5.20;;;10.50;99.90;;;;;;5045438;28;20037;-70
2022/10/26 02:56:19;;;;;;;9.70;4.55;;;10.50;99.90;;;;;;5043377;28;20040;-69
2022/10/26 02:58:50;;;;;;;7.28;4.25;;;10.50;99.90;;;;;;5045275;28;20029;-70
2022/10/26 03:01:16;;;;;;;9.13;4.22;;;10.50;99.90;;;;;;5046688;28;20036;-70
2022/10/26 03:03:42;;;;;;;10.85;4.45;;;10.50;99.90;;;;;;5048032;28;20048;-69
2022/10/26 03:06:08;;;;;;;9.00;4.25;;;10.60;99.90;;;;;;5048253;28;20044;-69
2022/10/26 03:08:33;;;;;;;8.70;4.05;;;10.50;99.90;;;;;;5047863;28;20032;-68
2022/10/26 03:10:59;;;;;;;12.13;4.43;;;10.50;99.90;;;;;;5047094;28;20113;-67
2022/10/26 03:13:24;;;;;;;7.55;4.13;;;10.50;99.90;;;;;;5046262;28;20109;-68
2022/10/26 03:15:53;;;;;;;13.50;4.40;;;10.50;99.90;;;;;;5046537;28;20029;-71
2022/10/26 03:18:19;;;;;;;8.73;4.15;;;10.60;99.90;;;;;;5046593;28;20033;-70
2022/10/26 03:20:44;;;;;;;7.60;4.15;;;10.60;99.90;;;;;;5047934;28;20025;-71
2022/10/26 03:23:11;;;;;;;7.28;4.25;;;10.60;99.90;;;;;;5049117;28;20469;-72
2022/10/26 03:25:37;;;;;;;9.55;3.95;;;10.60;99.90;;;;;;5048909;28;20036;-69
2022/10/26 03:28:03;;;;;;;11.35;4.00;;;10.60;99.90;;;;;;5049239;28;20055;-70
2022/10/26 03:30:30;;;;;;;11.68;4.32;;;10.70;99.90;;;;;;5047612;28;20029;-70
2022/10/26 03:32:56;;;;;;;10.95;4.30;;;10.70;99.90;;;;;;5049155;28;20603;-70
2022/10/26 03:35:22;;;;;;;13.82;4.30;;;10.70;99.90;;;;;;5048321;28;20033;-68
2022/10/26 03:37:48;;;;;;;8.75;4.03;;;10.80;99.90;;;;;;5049004;28;20040;-68
2022/10/26 03:40:14;;;;;;;12.20;3.92;;;10.70;99.90;;;;;;5047258;28;20029;-73
2022/10/26 03:42:40;;;;;;;14.30;3.90;;;10.80;99.90;;;;;;5048708;28;20055;-70
2022/10/26 03:45:06;;;;;;;10.52;4.07;;;10.70;99.90;;;;;;5048701;28;20566;-70
2022/10/26 03:47:32;;;;;;;15.77;4.07;;;10.70;99.90;;;;;;5047867;28;20623;-70
2022/10/26 03:49:58;;;;;;;9.05;4.30;;;10.70;99.90;;;;;;5047682;28;20028;-70
2022/10/26 03:52:24;;;;;;;11.85;4.35;;;10.70;99.90;;;;;;5048289;28;20025;-69
2022/10/26 03:54:50;;;;;;;6.88;3.97;;;10.80;99.90;;;;;;5048657;28;20104;-70
2022/10/26 03:57:16;;;;;;;11.98;4.00;;;10.80;99.90;;;;;;5047161;28;20572;-73
2022/10/26 03:59:41;;;;;;;10.07;4.53;;;10.80;99.90;;;;;;5048782;28;20115;-70
2022/10/26 04:02:07;;;;;;;9.88;3.90;;;10.80;99.90;;;;;;5048749;28;20495;-71
2022/10/26 04:04:33;;;;;;;10.75;4.38;;;10.80;99.90;;;;;;5047930;28;20052;-70
2022/10/26 04:06:58;;;;;;;9.77;4.30;;;10.80;99.90;;;;;;5047671;28;20068;-70
2022/10/26 04:09:24;;;;;;;8.65;3.92;;;10.80;99.90;;;;;;5047040;28;20199;-69
2022/10/26 04:11:50;;;;;;;11.98;4.18;;;10.80;99.90;;;;;;5048270;28;20452;-70
2022/10/26 04:14:15;;;;;;;6.53;4.20;;;10.80;99.90;;;;;;5048129;28;20117;-72
2022/10/26 04:16:41;;;;;;;9.13;4.40;;;10.80;99.90;;;;;;5048244;28;20037;-70
2022/10/26 04:19:06;;;;;;;8.60;4.10;;;10.80;99.90;;;;;;5046921;28;20043;-70
2022/10/26 04:21:32;;;;;;;8.55;4.32;;;10.70;99.90;;;;;;5047712;28;20148;-71
2022/10/26 04:23:58;;;;;;;13.60;4.28;;;10.80;99.90;;;;;;5048522;28;20029;-70
2022/10/26 04:26:23;;;;;;;9.48;4.22;;;10.80;99.90;;;;;;5047668;28;20033;-70
2022/10/26 04:28:49;;;;;;;11.10;4.47;;;10.80;99.90;;;;;;5047714;28;20044;-69
2022/10/26 04:31:15;;;;;;;9.32;3.90;;;10.80;99.90;;;;;;5047922;28;20496;-70
2022/10/26 04:33:40;;;;;;;12.75;4.97;;;10.70;99.90;;;;;;5048076;28;20064;-69
2022/10/26 04:36:06;;;;;;;15.52;4.68;;;10.80;99.90;;;;;;5048395;28;20045;-70
2022/10/26 04:38:32;;;;;;;10.93;5.15;;;10.80;99.90;;;;;;5046467;28;20033;-69
2022/10/26 04:40:58;;;;;;;10.77;4.25;;;10.80;99.90;;;;;;5048071;28;20040;-69
2022/10/26 04:43:23;;;;;;;8.50;3.50;;;10.90;99.90;;;;;;5047225;28;20481;-70
2022/10/26 04:45:49;;;;;;;7.57;3.97;;;10.90;99.90;;;;;;5047946;28;20128;-69
2022/10/26 04:48:15;;;;;;;6.50;3.75;;;11.00;99.90;;;;;;5047282;28;20082;-72
2022/10/26 04:50:40;;;;;;;8.35;4.28;;;11.10;99.90;;;;;;5047820;28;20103;-69
2022/10/26 04:53:07;;;;;;;9.50;4.20;;;11.10;99.90;;;;;;5048196;28;20036;-70
2022/10/26 04:55:34;;;;;;;11.02;4.03;;;11.10;99.90;;;;;;5047359;28;20477;-70
2022/10/26 04:58:00;;;;;;;11.77;4.40;;;11.20;99.90;;;;;;5047247;28;20043;-70
2022/10/26 05:00:26;;;;;;;7.63;4.10;;;11.20;99.90;;;;;;5045775;28;20119;-69
2022/10/26 05:02:57;;;;;;;11.18;4.82;;;11.20;99.90;;;;;;5048098;28;20033;-70
2022/10/26 05:05:23;;;;;;;13.45;5.47;;;11.20;99.90;;;;;;5048077;28;20440;-70
2022/10/26 05:07:56;;;;;;;11.80;5.07;;;11.20;99.90;;;;;;5051044;28;20032;-71
2022/10/26 05:10:22;;;;;;;18.38;5.18;;;11.20;99.90;;;;;;5051071;28;20104;-71
2022/10/26 05:12:52;;;;;;;9.25;4.70;;;11.20;99.90;;;;;;5051475;28;20462;-70
2022/10/26 05:15:18;;;;;;;23.98;6.20;;;11.30;99.90;;;;;;5051236;28;20763;-72
2022/10/26 05:17:43;;;;;;;11.60;5.28;;;11.00;99.90;;;;;;5050500;28;20064;-70
2022/10/26 05:20:12;;;;;;;22.73;5.82;;;10.80;99.90;;;;;;5051440;28;20648;-70
2022/10/26 05:22:41;;;;;;;10.98;5.43;;;10.70;99.90;;;;;;5050780;28;20272;-70
2022/10/26 05:25:07;;;;;;;15.18;6.18;;;10.70;99.90;;;;;;5051590;28;20037;-71
2022/10/26 05:27:32;;;;;;;11.18;5.55;;;10.70;99.90;;;;;;5049849;28;20028;-72
2022/10/26 05:29:58;;;;;;;11.25;5.35;;;10.60;99.90;;;;;;5050062;28;20377;-71
2022/10/26 05:32:24;;;;;;;11.82;4.75;;;10.70;99.90;;;;;;5050541;28;20029;-71
2022/10/26 05:34:49;;;;;;;12.85;4.80;;;10.70;99.90;;;;;;5051401;28;20485;-71
2022/10/26 05:37:15;;;;;;;12.73;5.28;;;10.80;99.90;;;;;;5050192;28;20037;-70
2022/10/26 05:39:42;;;;;;;12.60;4.65;;;10.90;99.90;;;;;;5050308;28;20459;-69
2022/10/26 05:42:07;;;;;;;8.48;4.57;;;11.00;99.90;;;;;;5051097;28;20039;-71
2022/10/26 05:44:33;;;;;;;9.40;4.32;;;11.10;99.90;;;;;;5049294;28;20025;-70
2022/10/26 05:46:58;;;;;;;14.05;4.63;;;11.10;99.90;;;;;;5051105;28;20531;-71
2022/10/26 05:49:24;;;;;;;8.20;4.57;;;11.20;99.90;;;;;;5050276;28;20136;-69
2022/10/26 05:51:50;;;;;;;10.48;5.15;;;11.20;99.90;;;;;;5050822;28;20033;-70
2022/10/26 05:54:15;;;;;;;8.48;4.60;;;11.10;99.90;;;;;;5051273;28;20116;-69
2022/10/26 05:56:41;;;;;;;13.88;4.95;;;11.00;99.90;;;;;;5049248;28;20087;-69
2022/10/26 05:59:12;;;;;;;17.60;7.22;;;11.00;99.90;;;;;;5050895;28;20572;-70
2022/10/26 06:02:11;;;;;;;12.68;6.38;;;11.00;99.90;;;;;;5050098;28;20088;-69
2022/10/26 06:04:42;;;;;;;14.43;6.53;;;11.00;99.90;;;;;;5050167;28;20496;-70
2022/10/26 06:07:15;;;;;;;10.73;6.00;;;10.90;99.90;;;;;;5050592;28;20099;-70
2022/10/26 06:09:42;;;;;;;11.23;5.90;;;11.10;99.90;;;;;;5048590;28;20052;-70
2022/10/26 06:12:09;;;;;;;9.40;5.13;;;11.20;99.90;;;;;;5050298;28;20033;-71
2022/10/26 06:14:35;;;;;;;10.88;5.63;;;11.30;99.90;;;;;;5049741;28;20045;-68
2022/10/26 06:17:33;;;;;;;11.40;4.90;;;11.40;99.90;;;;;;5049524;28;20029;-70
2022/10/26 06:20:12;;;;;;;13.68;4.75;;;11.50;99.90;;;;;;5050696;28;20033;-70
2022/10/26 06:22:44;;;;;;;8.43;4.90;;;11.50;99.90;;;;;;5050029;28;20359;-70
2022/10/26 06:25:22;;;;;;;14.45;4.68;;;11.60;99.90;;;;;;5049717;28;20039;-70
2022/10/26 06:27:55;;;;;;;18.20;5.10;;;11.70;99.90;;;;;;5048618;28;20428;-70
2022/10/26 06:30:22;;;;;;;11.88;4.78;;;11.80;99.90;;;;;;5048912;28;20025;-74
2022/10/26 06:32:49;;;;;;;9.38;4.80;;;11.70;99.90;;;;;;5049896;28;20082;-70
2022/10/26 06:35:30;;;;;;;10.48;5.03;;;11.60;99.90;;;;;;5049538;28;20051;-70
2022/10/26 06:38:00;;;;;;;13.32;5.18;;;11.60;99.90;;;;;;5050104;28;20061;-69
2022/10/26 06:40:28;;;;;;;9.75;5.35;;;11.50;99.90;;;;;;5049170;28;20049;-72
2022/10/26 06:42:54;;;;;;;11.55;5.90;;;11.50;99.90;;;;;;5048167;28;20052;-70
2022/10/26 06:45:20;;;;;;;10.50;6.15;;;11.50;99.90;;;;;;5048555;28;20492;-70
2022/10/26 06:47:59;;;;;;;10.85;6.53;;;11.60;99.90;;;;;;5048556;28;20033;-70
2022/10/26 06:50:28;;;;;;;11.27;5.75;;;11.70;99.90;;;;;;5048659;28;20040;-73
2022/10/26 06:53:00;;;;;;;18.45;7.63;;;11.70;99.90;;;;;;5049948;28;20025;-70
2022/10/26 06:55:30;;;;;;;56.05;24.00;;;11.70;99.90;;;;;;5049399;28;20517;-72
2022/10/26 06:57:55;;;;;;;60.22;24.77;;;11.70;99.90;;;;;;5049573;28;20460;-69
2022/10/26 07:00:24;;;;;;;34.13;16.98;;;11.70;99.90;;;;;;5048814;28;20170;-71
2022/10/26 07:02:49;;;;;;;67.47;25.83;;;11.70;99.90;;;;;;5049137;28;20029;-71
2022/10/26 07:05:15;;;;;;;42.70;18.73;;;11.70;99.90;;;;;;5049414;28;20032;-68
2022/10/26 07:07:46;;;;;;;37.25;14.68;;;11.80;99.90;;;;;;5048800;28;20039;-69
2022/10/26 07:10:12;;;;;;;;;;;11.70;99.90;;;;;;5049409;28;20033;-70
2022/10/26 07:12:38;;;;;;;15.80;5.65;;;11.70;99.90;;;;;;5048545;28;19919;-71
2022/10/26 07:15:05;;;;;;;12.57;6.22;;;11.60;99.90;;;;;;5049337;28;20029;-71
2022/10/26 07:17:31;;;;;;;15.65;6.85;;;11.60;99.90;;;;;;5048795;28;20098;-70
2022/10/26 07:19:57;;;;;;;16.17;6.38;;;11.50;99.90;;;;;;5049187;28;20063;-70
2022/10/26 07:22:24;;;;;;;9.43;5.55;;;11.50;99.90;;;;;;5048621;28;20037;-71
2022/10/26 07:24:50;;;;;;;10.52;5.85;;;11.50;99.90;;;;;;5048581;28;20029;-70
2022/10/26 07:27:20;;;;;;;14.13;6.50;;;11.50;99.90;;;;;;5049339;28;20033;-70
2022/10/26 07:29:45;;;;;;;13.82;7.07;;;11.60;99.90;;;;;;5048186;28;20104;-70
2022/10/26 07:32:11;;;;;;;18.77;7.90;;;11.70;99.90;;;;;;5047000;28;20112;-71
2022/10/26 07:34:37;;;;;;;14.13;7.75;;;11.70;99.90;;;;;;5048666;28;20044;-70
2022/10/26 07:37:02;;;;;;;17.85;6.93;;;11.90;99.90;;;;;;5049129;28;20129;-70
2022/10/26 07:39:31;;;;;;;15.20;6.18;;;12.00;99.90;;;;;;5048705;28;20025;-72
2022/10/26 07:41:57;;;;;;;13.52;5.95;;;12.10;99.90;;;;;;5048063;28;20068;-69
2022/10/26 07:44:22;;;;;;;25.70;10.63;;;12.20;99.90;;;;;;5048529;28;20081;-68
2022/10/26 07:46:48;;;;;;;23.17;9.85;;;12.30;99.90;;;;;;5048118;28;20043;-70
2022/10/26 07:49:14;;;;;;;15.43;7.28;;;12.30;99.90;;;;;;5048760;28;20029;-71
2022/10/26 07:51:39;;;;;;;14.32;7.70;;;12.40;99.90;;;;;;5047677;28;20102;-70
2022/10/26 07:54:05;;;;;;;14.55;7.15;;;12.50;99.90;;;;;;5048578;28;20558;-70
2022/10/26 07:56:31;;;;;;;21.63;7.97;;;12.40;99.90;;;;;;5047979;28;20056;-71
2022/10/26 07:58:57;;;;;;;19.92;9.20;;;12.60;99.90;;;;;;5048832;28;20211;-71
2022/10/26 08:01:23;;;;;;;13.02;6.90;;;12.70;99.90;;;;;;5048012;28;20024;-69
2022/10/26 08:03:52;;;;;;;11.23;6.57;;;12.70;99.90;;;;;;5047933;28;20033;-70
2022/10/26 08:06:18;;;;;;;11.15;5.90;;;12.70;99.90;;;;;;5046326;28;20481;-71
2022/10/26 08:08:45;;;;;;;21.90;6.65;;;12.70;99.90;;;;;;5043066;28;20035;-71
2022/10/26 08:11:10;;;;;;;10.65;6.40;;;12.60;99.90;;;;;;5048489;28;20036;-71
2022/10/26 08:13:36;;;;;;;11.45;6.45;;;12.60;99.90;;;;;;5047853;28;20461;-71
2022/10/26 08:16:04;;;;;;;13.20;6.72;;;12.70;99.90;;;;;;5047401;28;20036;-70
2022/10/26 08:18:30;;;;;;;13.85;7.35;;;12.70;99.90;;;;;;5048061;28;20039;-71
2022/10/26 08:21:04;;;;;;;12.20;7.18;;;12.70;99.90;;;;;;5048363;28;20474;-69
2022/10/26 08:23:31;;;;;;;12.13;7.05;;;12.70;99.90;;;;;;5047879;28;20025;-74
2022/10/26 08:26:01;;;;;;;16.35;7.47;;;12.80;99.90;;;;;;5047689;28;20033;-68
2022/10/26 08:28:27;;;;;;;16.63;7.90;;;12.90;99.90;;;;;;5044090;28;20033;-71
2022/10/26 08:30:54;;;;;;;21.58;8.25;;;12.90;99.90;;;;;;5046161;28;20056;-70
2022/10/26 08:33:20;;;;;;;14.88;7.53;;;13.00;99.90;;;;;;5048201;28;20806;-70
2022/10/26 08:35:46;;;;;;;10.55;6.22;;;13.20;99.90;;;;;;5047615;28;20029;-69
2022/10/26 08:38:11;;;;;;;11.13;6.43;;;13.30;99.90;;;;;;5048037;28;20087;-69
2022/10/26 08:40:40;;;;;;;15.75;6.90;;;13.40;99.90;;;;;;5047996;28;20039;-69
2022/10/26 08:43:21;;;;;;;15.95;6.88;;;13.60;99.90;;;;;;5052145;28;20108;-70
2022/10/26 08:45:56;;;;;;;18.15;6.95;;;13.60;99.90;;;;;;5051467;28;20146;-71
2022/10/26 08:48:27;;;;;;;15.18;6.72;;;13.60;99.90;;;;;;5052105;28;20056;-70
2022/10/26 08:51:06;;;;;;;15.32;6.95;;;13.60;99.90;;;;;;5050828;28;20708;-68
2022/10/26 08:53:54;;;;;;;13.68;6.78;;;13.60;99.90;;;;;;5051882;28;20039;-72
2022/10/26 08:56:24;;;;;;;12.02;7.50;;;13.70;99.90;;;;;;5051906;28;20524;-70
2022/10/26 08:59:17;;;;;;;17.85;6.20;;;13.70;99.90;;;;;;5050584;28;20158;-69
2022/10/26 09:01:42;;;;;;;13.70;6.30;;;13.90;99.90;;;;;;5038951;28;20044;-70
2022/10/26 09:04:12;;;;;;;13.52;6.38;;;14.00;99.90;;;;;;5051699;28;20021;-72
2022/10/26 09:06:56;;;;;;;15.75;6.30;;;14.20;99.90;;;;;;5051231;28;20068;-72
2022/10/26 09:09:28;;;;;;;12.13;5.60;;;14.10;99.90;;;;;;5051004;28;20021;-70
2022/10/26 09:12:12;;;;;;;14.52;5.75;;;14.10;99.90;;;;;;5050930;28;20036;-70
2022/10/26 09:15:07;;;;;;;16.83;5.57;;;14.20;99.90;;;;;;5049344;28;20041;-69
2022/10/26 09:18:14;;;;;;;9.00;4.00;;;14.40;99.90;;;;;;5051292;28;20068;-73
2022/10/26 09:20:59;;;;;;;10.07;4.20;;;14.60;99.90;;;;;;5050873;28;20025;-69
2022/10/26 09:23:42;;;;;;;11.02;4.35;;;14.80;99.90;;;;;;5051675;28;20082;-71
2022/10/26 09:26:13;;;;;;;13.07;4.25;;;15.00;99.90;;;;;;5050647;28;20025;-69
2022/10/26 09:28:40;;;;;;;12.00;5.50;;;15.00;99.90;;;;;;5050805;28;20021;-69
2022/10/26 09:31:14;;;;;;;11.00;4.07;;;15.10;99.90;;;;;;5051504;28;20037;-69
2022/10/26 09:33:40;;;;;;;13.95;4.70;;;15.20;99.90;;;;;;5049485;28;20036;-70
2022/10/26 09:36:09;;;;;;;11.10;3.58;;;15.30;99.90;;;;;;5051200;28;20368;-70
2022/10/26 09:39:22;;;;;;;12.20;4.82;;;15.30;99.90;;;;;;5050753;28;20029;-70
2022/10/26 09:42:17;;;;;;;10.10;4.38;;;15.40;99.90;;;;;;4987591;28;20035;-70
2022/10/26 09:44:59;;;;;;;9.27;3.72;;;15.50;99.90;;;;;;4981105;28;20058;-70
2022/10/26 09:47:42;;;;;;;8.05;3.20;;;15.50;99.90;;;;;;5035966;28;20053;-70
2022/10/26 09:50:31;;;;;;;15.93;3.03;;;15.50;99.90;;;;;;5051143;28;20025;-70
2022/10/26 09:52:57;;;;;;;7.60;3.17;;;15.60;99.90;;;;;;5049335;28;20061;-70
2022/10/26 09:55:23;;;;;;;11.10;3.67;;;15.60;99.90;;;;;;5048309;28;20457;-70
2022/10/26 09:57:51;;;;;;;17.05;3.38;;;15.60;99.90;;;;;;5050069;28;20039;-69
2022/10/26 10:00:19;;;;;;;15.45;3.33;;;15.70;99.90;;;;;;5049531;28;20112;-69
2022/10/26 10:02:50;;;;;;;8.30;3.22;;;15.80;99.90;;;;;;5049991;28;20033;-69
2022/10/26 10:05:29;;;;;;;11.82;3.50;;;15.80;99.90;;;;;;5050265;28;20665;-71
2022/10/26 10:08:16;;;;;;;9.60;3.08;;;15.90;99.90;;;;;;5048797;28;20100;-70
2022/10/26 10:11:12;;;;;;;10.90;3.05;;;16.00;99.90;;;;;;5048610;28;20430;-70
2022/10/26 10:13:43;;;;;;;14.52;4.03;;;16.10;99.90;;;;;;5025020;28;20052;-73
2022/10/26 10:16:20;;;;;;;8.80;3.22;;;16.10;99.90;;;;;;5036535;28;20091;-69
2022/10/26 10:18:58;;;;;;;13.00;3.50;;;16.20;99.90;;;;;;5049930;28;20064;-69
2022/10/26 10:21:38;;;;;;;11.82;3.30;;;16.20;99.90;;;;;;5050609;28;20029;-69
2022/10/26 10:24:24;;;;;;;8.98;3.80;;;16.40;99.90;;;;;;5049197;28;20025;-70
2022/10/26 10:26:57;;;;;;;8.27;2.95;;;16.50;99.90;;;;;;5048361;28;20037;-68
2022/10/26 10:29:31;;;;;;;11.85;3.08;;;16.70;99.90;;;;;;5046554;28;20170;-68
2022/10/26 10:32:02;;;;;;;9.35;3.15;;;17.00;99.90;;;;;;5047376;28;20635;-70
2022/10/26 10:34:31;;;;;;;;;;;17.20;99.90;;;;;;5050801;28;20029;-69
2022/10/26 10:36:58;;;;;;;7.35;3.00;;;17.50;99.90;;;;;;5049368;28;19909;-69
2022/10/26 10:39:44;;;;;;;10.50;3.10;;;17.70;99.90;;;;;;5049301;28;20033;-69
2022/10/26 10:42:22;;;;;;;15.20;2.88;;;18.00;99.90;;;;;;5049894;28;20132;-67
2022/10/26 10:44:54;;;;;;;11.07;3.20;;;18.10;99.90;;;;;;5048908;28;20045;-71
2022/10/26 10:47:29;;;;;;;14.45;2.70;;;18.20;99.90;;;;;;5050072;28;20070;-70
2022/10/26 10:50:16;;;;;;;7.15;3.13;;;18.20;99.90;;;;;;5047802;28;20025;-71
2022/10/26 10:52:42;;;;;;;8.20;2.80;;;18.20;99.90;;;;;;5049139;28;20025;-69
2022/10/26 10:55:13;;;;;;;10.00;3.00;;;18.30;99.90;;;;;;5049974;28;20063;-72
2022/10/26 10:58:05;;;;;;;9.27;2.42;;;18.30;99.90;;;;;;5049409;28;20032;-72
2022/10/26 11:00:36;;;;;;;12.25;3.00;;;18.40;99.90;;;;;;5049845;28;20040;-69
2022/10/26 11:03:23;;;;;;;13.82;3.20;;;18.50;99.90;;;;;;5048381;28;20492;-69
2022/10/26 11:06:00;;;;;;;9.90;2.97;;;18.60;99.90;;;;;;5048848;28;20039;-70
2022/10/26 11:08:45;;;;;;;7.18;3.03;;;18.70;99.90;;;;;;5048847;28;20037;-70
2022/10/26 11:11:19;;;;;;;8.15;3.05;;;18.80;99.90;;;;;;5048088;28;20079;-70
2022/10/26 11:14:05;;;;;;;10.02;2.65;;;18.80;99.90;;;;;;5048381;28;20033;-69
2022/10/26 11:16:39;;;;;;;8.23;2.72;;;19.10;99.90;;;;;;5049384;28;20068;-72
2022/10/26 11:19:46;;;;;;;14.88;2.80;;;19.20;99.90;;;;;;5045444;28;20044;-71
2022/10/26 11:22:21;;;;;;;7.45;2.85;;;19.10;99.90;;;;;;4986767;28;20194;-69
2022/10/26 11:24:58;;;;;;;9.77;2.85;;;19.10;99.90;;;;;;4986367;28;20043;-68
2022/10/26 11:27:38;;;;;;;11.65;3.20;;;19.10;99.90;;;;;;4984942;28;20118;-71
2022/10/26 11:30:17;;;;;;;9.27;2.63;;;19.10;99.90;;;;;;4948119;29;20042;-69
2022/10/26 11:33:18;;;;;;;9.07;2.97;;;19.00;99.90;;;;;;4957129;28;20447;-70
2022/10/26 11:35:57;;;;;;;8.32;3.10;;;19.00;99.90;;;;;;4966934;28;20034;-70
2022/10/26 11:38:39;;;;;;;9.52;2.97;;;19.10;99.90;;;;;;4967775;28;20154;-72
2022/10/26 11:41:07;;;;;;;11.82;3.38;;;19.20;99.90;;;;;;4967077;28;20035;-69
2022/10/26 11:44:03;;;;;;;9.05;2.70;;;19.30;99.90;;;;;;4965817;28;20499;-70
2022/10/26 11:46:36;;;;;;;16.33;3.55;;;19.30;99.90;;;;;;4964350;28;20093;-69
2022/10/26 11:49:13;;;;;;;13.05;2.70;;;19.40;99.90;;;;;;4966857;28;20035;-71
2022/10/26 11:51:57;;;;;;;7.30;2.42;;;19.50;99.90;;;;;;4966692;28;20031;-70
2022/10/26 11:54:41;;;;;;;11.27;3.05;;;19.60;99.90;;;;;;5047658;28;20033;-72
2022/10/26 11:57:10;;;;;;;9.35;3.00;;;19.20;99.90;;;;;;5048246;28;20037;-71
2022/10/26 11:59:45;;;;;;;13.63;3.13;;;18.90;99.90;;;;;;5048753;28;20091;-70
2022/10/26 12:02:17;;;;;;;11.18;3.25;;;18.70;99.90;;;;;;5046782;28;20028;-73
2022/10/26 12:04:46;;;;;;;13.13;3.50;;;18.60;99.90;;;;;;5048307;28;20039;-72
2022/10/26 12:07:23;;;;;;;11.85;4.03;;;18.60;99.90;;;;;;5048763;28;20028;-69
2022/10/26 12:09:50;;;;;;;8.82;3.13;;;18.70;99.90;;;;;;5047626;28;20079;-71
2022/10/26 12:12:16;;;;;;;16.45;3.05;;;18.80;99.90;;;;;;5047463;28;20035;-70
2022/10/26 12:14:55;;;;;;;12.93;3.13;;;18.80;99.90;;;;;;5047359;28;20584;-72
2022/10/26 12:17:30;;;;;;;14.23;2.72;;;18.80;99.90;;;;;;5048645;28;20063;-71
2022/10/26 12:20:24;;;;;;;13.75;3.20;;;18.70;99.90;;;;;;5047846;28;20196;-73
2022/10/26 12:22:50;;;;;;;10.40;3.38;;;18.80;99.90;;;;;;5046417;28;20501;-70
2022/10/26 12:25:15;;;;;;;10.73;3.22;;;19.40;99.90;;;;;;5048468;28;20030;-70
2022/10/26 12:27:41;;;;;;;12.88;2.95;;;19.50;99.90;;;;;;5048576;28;20083;-73
2022/10/26 12:30:17;;;;;;;8.80;2.97;;;19.80;99.90;;;;;;5047555;28;20108;-72
2022/10/26 12:32:43;;;;;;;11.40;3.00;;;19.80;99.90;;;;;;5046987;28;20064;-73
2022/10/26 12:35:30;;;;;;;7.07;2.80;;;19.50;99.90;;;;;;5048006;28;20445;-70
2022/10/26 12:37:56;;;;;;;15.80;2.90;;;19.20;99.90;;;;;;5047008;28;20813;-71
2022/10/26 12:40:42;;;;;;;9.80;2.92;;;19.10;99.90;;;;;;5048669;28;20033;-72
2022/10/26 12:43:13;;;;;;;8.57;3.10;;;18.90;99.90;;;;;;5046169;28;20048;-71
2022/10/26 12:45:44;;;;;;;9.48;2.80;;;18.80;99.90;;;;;;5048251;28;20484;-69
2022/10/26 12:48:40;;;;;;;11.95;3.20;;;18.80;99.90;;;;;;5047711;28;20033;-73
2022/10/26 12:51:21;;;;;;;6.28;2.70;;;18.80;99.90;;;;;;5031912;28;20030;-72
2022/10/26 12:54:05;;;;;;;;;;;19.20;99.90;;;;;;5048187;28;20060;-71
2022/10/26 12:57:09;;;;;;;16.67;3.90;;;19.40;99.90;;;;;;5045385;28;19956;-71
2022/10/26 12:59:49;;;;;;;10.18;3.33;;;19.30;99.90;;;;;;5013957;28;20128;-72
2022/10/26 13:02:47;;;;;;;7.47;3.22;;;19.20;99.90;;;;;;5048286;28;20021;-70
2022/10/26 13:05:18;;;;;;;9.88;3.20;;;19.10;99.90;;;;;;5040590;28;20041;-71